Waterville, Pennsylvania
Current Conditions -  °F | °C
As of 6:54 PM on Friday 21 Nov 2014 (Local Time) from KIPT Reporting Station
Clear Clear  
Wind Chill: 20°   Ceiling: Unl
Heat Index: 28°   Visibility: 10mi
Dew Point:   Wind: 8mph
Humidity: 45%   Direction: 260°W
Pressure: 30.47"   Gusts: NA
Location:  41.3°N, 77.36°W
Report Text: KIPT 212354Z 26007KT 10SM CLR M02/M13 A3047 RMK AO2 SLP325 T10221128 10022 21039 51020
Loading
Personal Weather Stations






























Interactive Weather Map New forecast layout! Learn more

10-Day Weather Forecast

Advertisements
Track Severe Weather on mobile